Map

Track Data

SID SEASON NUMBER BASIN SUBBASIN NAME ISO_TIME NATURE LAT LON WMO_WIND WMO_PRES WMO_AGENCY TRACK_TYPE DIST2LAND LANDFALL IFLAG USA_AGENCY USA_ATCF_ID USA_LAT USA_LON USA_RECORD USA_STATUS USA_WIND USA_PRES USA_SSHS USA_R34_NE USA_R34_SE USA_R34_SW USA_R34_NW USA_R50_NE USA_R50_SE USA_R50_SW USA_R50_NW USA_R64_NE USA_R64_SE USA_R64_SW USA_R64_NW USA_POCI USA_ROCI USA_RMW USA_EYE TOKYO_LAT TOKYO_LON TOKYO_GRADE TOKYO_WIND TOKYO_PRES TOKYO_R50_DIR TOKYO_R50_LONG TOKYO_R50_SHORT TOKYO_R30_DIR TOKYO_R30_LONG TOKYO_R30_SHORT TOKYO_LAND CMA_LAT CMA_LON CMA_CAT CMA_WIND CMA_PRES HKO_LAT HKO_LON HKO_CAT HKO_WIND HKO_PRES NEWDELHI_LAT NEWDELHI_LON NEWDELHI_GRADE NEWDELHI_WIND NEWDELHI_PRES NEWDELHI_CI NEWDELHI_DP NEWDELHI_POCI REUNION_LAT REUNION_LON REUNION_TYPE REUNION_WIND REUNION_PRES REUNION_TNUM REUNION_CI REUNION_RMW REUNION_R34_NE REUNION_R34_SE REUNION_R34_SW REUNION_R34_NW REUNION_R50_NE REUNION_R50_SE REUNION_R50_SW REUNION_R50_NW REUNION_R64_NE REUNION_R64_SE REUNION_R64_SW REUNION_R64_NW BOM_LAT BOM_LON BOM_TYPE BOM_WIND BOM_PRES BOM_TNUM BOM_CI BOM_RMW BOM_R34_NE BOM_R34_SE BOM_R34_SW BOM_R34_NW BOM_R50_NE BOM_R50_SE BOM_R50_SW BOM_R50_NW BOM_R64_NE BOM_R64_SE BOM_R64_SW BOM_R64_NW BOM_ROCI BOM_POCI BOM_EYE BOM_POS_METHOD BOM_PRES_METHOD NADI_LAT NADI_LON NADI_CAT NADI_WIND NADI_PRES WELLINGTON_LAT WELLINGTON_LON WELLINGTON_WIND WELLINGTON_PRES DS824_LAT DS824_LON DS824_STAGE DS824_WIND DS824_PRES TD9636_LAT TD9636_LON TD9636_STAGE TD9636_WIND TD9636_PRES TD9635_LAT TD9635_LON TD9635_WIND TD9635_PRES TD9635_ROCI NEUMANN_LAT NEUMANN_LON NEUMANN_CLASS NEUMANN_WIND NEUMANN_PRES MLC_LAT MLC_LON MLC_CLASS MLC_WIND MLC_PRES USA_GUST BOM_GUST BOM_GUST_PER REUNION_GUST REUNION_GUST_PER USA_SEAHGT USA_SEARAD_NE USA_SEARAD_SE USA_SEARAD_SW USA_SEARAD_NW STORM_SPEED STORM_DIR
1971124N10093 1971 46 NI BB NOT_NAMED 1971-05-03 15:00:00 NR 9.80000 92.5000 main 556 556 __________O___ -1 9.80000 92.5000 1 0 0
1971124N10093 1971 46 NI BB NOT_NAMED 1971-05-03 18:00:00 TS 9.82187 92.4984 main 556 556 O________OP___ jtwc_io IO011971 9.80000 92.5000 -1 9.80000 92.5000 TC 25 9.84373 92.4968 1 1 13
1971124N10093 1971 46 NI BB NOT_NAMED 1971-05-03 21:00:00 TS 9.89427 92.5050 main 566 566 P________PP___ IO011971 9.89000 92.5200 -1 9.89000 92.5200 TC 25 9.89997 92.4849 1 2 352
1971124N10093 1971 46 NI BB NOT_NAMED 1971-05-04 00:00:00 TS 9.99249 92.4822 main 575 575 O________OP___ jtwc_io IO011971 10.0000 92.5000 -1 10.0000 92.5000 TC 25 9.98123 92.4556 1 3 338
1971124N10093 1971 46 NI BB NOT_NAMED 1971-05-04 03:00:00 TS 10.1283 92.4100 main 591 591 P________PO___ IO011971 10.1425 92.4150 -1 10.1425 92.4150 TC 25 10.1000 92.4000 1 3 329
1971124N10093 1971 46 NI BB NOT_NAMED 1971-05-04 06:00:00 TS 10.2875 92.3045 main 615 615 O________OP___ jtwc_io IO011971 10.3000 92.3000 -1 10.3000 92.3000 TC 25 10.2625 92.3135 1 4 327
1971124N10093 1971 46 NI BB NOT_NAMED 1971-05-04 09:00:00 TS 10.4500 92.2026 main 639 633 P________PP___ IO011971 10.4500 92.2000 -1 10.4500 92.2000 TC 25 10.4500 92.2077 1 4 328
1971124N10093 1971 46 NI BB NOT_NAMED 1971-05-04 12:00:00 TS 10.6125 92.0993 main 633 617 O________OP___ jtwc_io IO011971 10.6000 92.1000 -1 10.6000 92.1000 TC 25 10.6375 92.0979 1 4 328
1971124N10093 1971 46 NI BB NOT_NAMED 1971-05-04 15:00:00 TS 10.7817 91.9900 main 617 611 P________PO___ IO011971 10.7725 91.9850 -1 10.7725 91.9850 TC 25 10.8000 92.0000 1 3 327
1971124N10093 1971 46 NI BB NOT_NAMED 1971-05-04 18:00:00 TS 10.8850 91.9159 main 611 611 O________OP___ jtwc_io IO011971 10.9000 91.9000 -1 10.9000 91.9000 TC 25 10.8550 91.9476 1 1 320
1971124N10093 1971 46 NI BB NOT_NAMED 1971-05-04 21:00:00 TS 10.8816 91.9024 main 611 611 P________PP___ IO011971 10.8775 91.9000 -1 10.8775 91.9000 TC 30 10.8900 91.9072 1 0 327
1971124N10093 1971 46 NI BB NOT_NAMED 1971-05-05 00:00:00 TS 10.9183 91.8877 main 611 596 O________OP___ jtwc_io IO011971 10.9000 91.9000 -1 10.9000 91.9000 TC 35 10.9550 91.8632 1 3 340
1971124N10093 1971 46 NI BB NOT_NAMED 1971-05-05 03:00:00 TS 11.1317 91.8150 main 596 572 P________PO___ IO011971 11.1475 91.8225 -1 11.1475 91.8225 TC 35 11.1000 91.8000 2 6 342
1971124N10093 1971 46 NI BB NOT_NAMED 1971-05-05 06:00:00 TS 11.4629 91.7016 main 562 540 O________OP___ jtwc_io IO011971 11.5000 91.7000 -1 11.5000 91.7000 TC 35 11.3888 91.7047 2 7 340
1971124N10093 1971 46 NI BB NOT_NAMED 1971-05-05 09:00:00 TS 11.8100 91.5675 main 540 516 P________PP___ IO011971 11.8350 91.5575 -1 11.8350 91.5575 TC 35 11.7600 91.5875 2 8 339
1971124N10093 1971 46 NI BB NOT_NAMED 1971-05-05 12:00:00 TS 12.1921 91.4172 main 516 489 O________OP___ jtwc_io IO011971 12.2000 91.4000 -1 12.2000 91.4000 TC 35 12.1763 91.4515 2 8 340
1971124N10093 1971 46 NI BB NOT_NAMED 1971-05-05 15:00:00 TS 12.6000 91.2667 main 489 473 P________PO___ IO011971 12.6000 91.2500 -1 12.6000 91.2500 TC 35 12.6000 91.3000 2 9 340
1971124N10093 1971 46 NI BB NOT_NAMED 1971-05-05 18:00:00 TS 12.9889 91.1198 main 473 457 O________OP___ jtwc_io IO011971 13.0000 91.1000 -1 13.0000 91.1000 TC 35 12.9668 91.1593 2 8 339
1971124N10093 1971 46 NI BB NOT_NAMED 1971-05-05 21:00:00 TS 13.3449 90.9772 main 458 445 P________PP___ IO011971 13.3500 90.9649 -1 13.3500 90.9649 TC 35 13.3348 91.0019 2 8 337
1971124N10093 1971 46 NI BB NOT_NAMED 1971-05-06 00:00:00 TS 13.7035 90.8062 main 447 437 O________OP___ jtwc_io IO011971 13.7000 90.8000 -1 13.7000 90.8000 TC 35 13.7105 90.8186 2 8 333
1971124N10093 1971 46 NI BB NOT_NAMED 1971-05-06 03:00:00 TS 14.0900 90.5816 main 441 440 P________PO___ IO011971 14.0850 90.5724 -1 14.0850 90.5724 TC 35 14.1000 90.6000 2 9 329
1971124N10093 1971 46 NI BB NOT_NAMED 1971-05-06 06:00:00 TS 14.5036 90.3027 main 450 446 O________OP___ jtwc_io IO011971 14.5000 90.3000 -1 14.5000 90.3000 TC 35 14.5109 90.3080 2 10 327
1971124N10093 1971 46 NI BB NOT_NAMED 1971-05-06 09:00:00 TS 14.9451 90.0002 main 466 463 P________PP___ IO011971 14.9500 90.0075 -1 14.9500 90.0075 TC 35 14.9354 89.9857 2 11 326
1971124N10093 1971 46 NI BB NOT_NAMED 1971-05-06 12:00:00 TS 15.3891 89.6902 main 486 486 O________OP___ jtwc_io IO011971 15.4000 89.7000 -1 15.4000 89.7000 TC 35 15.3672 89.6705 2 10 325
1971124N10093 1971 46 NI BB NOT_NAMED 1971-05-06 15:00:00 TS 15.8000 89.3899 main 513 512 P________PO___ IO011971 15.8000 89.3849 -1 15.8000 89.3849 TC 35 15.8000 89.4000 2 10 325
1971124N10093 1971 46 NI BB NOT_NAMED 1971-05-06 18:00:00 TS 16.1920 89.1148 main 512 462 O________OP___ jtwc_io IO011971 16.2000 89.1000 -1 16.2000 89.1000 TC 35 16.1760 89.1445 2 10 328
1971124N10093 1971 46 NI BB NOT_NAMED 1971-05-06 21:00:00 TS 16.6098 88.8568 main 462 414 P________PP___ IO011971 16.6350 88.8104 -1 16.6350 88.8104 TC 35 16.5595 88.9496 2 9 338
1971124N10093 1971 46 NI BB NOT_NAMED 1971-05-07 00:00:00 TS 17.0628 88.7516 main 411 384 O________OP___ jtwc_io IO011971 17.1000 88.7000 -1 17.1000 88.7000 TC 35 16.9883 88.8548 2 9 4
1971124N10093 1971 46 NI BB NOT_NAMED 1971-05-07 03:00:00 TS 17.5317 88.9116 main 384 359 P________PO___ IO011971 17.5476 88.9174 -1 17.5476 88.9174 TC 35 17.5000 88.9000 2 12 23
1971124N10093 1971 46 NI BB NOT_NAMED 1971-05-07 06:00:00 TS 18.1455 89.2426 main 359 304 O________OP___ jtwc_io IO011971 18.1000 89.3000 -1 18.1000 89.3000 TC 35 18.2365 89.1277 2 16 24
1971124N10093 1971 46 NI BB NOT_NAMED 1971-05-07 09:00:00 TS 18.9418 89.5882 main 306 228 P________PP___ IO011971 18.8924 89.6348 -1 18.8924 89.6348 TC 35 19.0406 89.4949 2 17 24
1971124N10093 1971 46 NI BB NOT_NAMED 1971-05-07 12:00:00 TS 19.7331 89.9800 main 232 168 O________OP___ jtwc_io IO011971 19.7000 90.0000 -1 19.7000 90.0000 TC 35 19.7993 89.9401 2 16 28
1971124N10093 1971 46 NI BB NOT_NAMED 1971-05-07 15:00:00 TS 20.3700 90.3999 main 157 127 P________PO___ IO011971 20.3550 90.3999 -1 20.3550 90.3999 TC 30 20.4000 90.4000 2 13 36
1971124N10093 1971 46 NI BB NOT_NAMED 1971-05-07 18:00:00 TS 20.7843 90.8087 main 127 98 O________OP___ jtwc_io IO011971 20.8000 90.8000 -1 20.8000 90.8000 TC 25 20.7609 90.8217 2 9 51
1971124N10093 1971 46 NI BB NOT_NAMED 1971-05-07 21:00:00 TS 20.9528 91.1804 main 91 66 P________PP___ IO011971 20.9776 91.1628 -1 20.9776 91.1628 TC 25 20.9196 91.2038 2 7 74
1971124N10093 1971 46 NI BB NOT_NAMED 1971-05-08 00:00:00 TS 20.9718 91.5294 main 66 38 O________OP___ jtwc_io IO011971 21.0000 91.5000 -1 21.0000 91.5000 TC 25 20.9437 91.5589 2 7 94
1971124N10093 1971 46 NI BB NOT_NAMED 1971-05-08 03:00:00 NR 20.9000 91.9000 main 38 __________O___ IO011971 -1 TC 20.9000 91.9000 6 7 102

About IBTrACS Database

This database is a web-friendly format of International Best Track Archive for Climate Stewardship (IBTrACS), a global best track data archive curated by NOAA dating back to 1842.

Updated: 2021-12-06